createdAt,value
2022-11-16T00:01:29.974Z,71.24
2022-11-16T00:03:58.205Z,71.07
2022-11-16T00:06:24.759Z,71.04
2022-11-16T00:09:14.283Z,70.99
2022-11-16T00:11:41.221Z,71.16
2022-11-16T00:14:08.224Z,70.91
2022-11-16T00:16:34.721Z,71.01
2022-11-16T00:19:03.512Z,70.90
2022-11-16T00:21:30.267Z,71.38
2022-11-16T00:23:56.875Z,71.24
2022-11-16T00:26:24.017Z,71.36
2022-11-16T00:28:52.048Z,70.74
2022-11-16T00:31:18.857Z,71.00
2022-11-16T00:33:45.738Z,70.75
2022-11-16T00:36:12.876Z,70.83
2022-11-16T00:38:39.876Z,71.32
2022-11-16T00:41:06.734Z,71.04
2022-11-16T00:43:33.921Z,70.95
2022-11-16T00:46:00.520Z,71.07
2022-11-16T00:48:26.995Z,70.78
2022-11-16T00:50:53.876Z,71.19
2022-11-16T00:53:21.651Z,71.02
2022-11-16T00:55:48.812Z,70.93
2022-11-16T00:58:17.988Z,70.99
2022-11-16T01:00:48.937Z,70.93
2022-11-16T01:03:15.584Z,71.21
2022-11-16T01:05:42.103Z,71.25
2022-11-16T01:08:08.858Z,70.81
2022-11-16T01:10:39.537Z,71.28
2022-11-16T01:13:06.658Z,71.08
2022-11-16T01:15:33.236Z,71.39
2022-11-16T01:17:59.791Z,71.11
2022-11-16T01:20:29.046Z,71.30
2022-11-16T01:22:55.809Z,70.86
2022-11-16T01:25:22.320Z,70.64
2022-11-16T01:27:48.873Z,71.21
2022-11-16T01:30:25.329Z,70.65
2022-11-16T01:33:02.366Z,70.83
2022-11-16T01:35:28.899Z,70.70
2022-11-16T01:37:55.424Z,70.75
2022-11-16T01:40:22.358Z,70.46
2022-11-16T01:42:48.864Z,70.78
2022-11-16T01:45:20.022Z,70.80
2022-11-16T01:47:47.701Z,70.55
2022-11-16T01:50:18.950Z,70.91
2022-11-16T01:52:55.416Z,70.90
2022-11-16T01:55:23.667Z,71.14
2022-11-16T01:58:14.508Z,71.00
2022-11-16T02:00:41.807Z,71.09
2022-11-16T02:03:26.793Z,70.76
2022-11-16T02:06:16.320Z,70.93
2022-11-16T02:09:13.691Z,70.93
2022-11-16T02:12:09.226Z,71.10
2022-11-16T02:14:51.168Z,71.43
2022-11-16T02:17:31.943Z,70.90
2022-11-16T02:20:22.301Z,71.17
2022-11-16T02:23:27.272Z,70.97
2022-11-16T02:25:59.467Z,71.51
2022-11-16T02:28:34.428Z,71.16
2022-11-16T02:31:01.852Z,71.04
2022-11-16T02:33:33.971Z,70.97
2022-11-16T02:36:02.813Z,71.47
2022-11-16T02:38:30.810Z,71.01
2022-11-16T02:40:58.744Z,71.11
2022-11-16T02:43:39.285Z,70.67
2022-11-16T02:46:08.556Z,71.12
2022-11-16T02:48:41.968Z,71.00
2022-11-16T02:51:08.732Z,71.16
2022-11-16T02:53:41.616Z,71.04
2022-11-16T02:56:13.278Z,71.17
2022-11-16T02:58:40.615Z,70.86
2022-11-16T03:01:14.370Z,71.39
2022-11-16T03:03:53.782Z,71.61
2022-11-16T03:06:26.706Z,71.44
2022-11-16T03:09:07.631Z,71.15
2022-11-16T03:11:55.407Z,70.69
2022-11-16T03:14:23.873Z,71.19
2022-11-16T03:16:57.112Z,71.02
2022-11-16T03:19:33.741Z,71.19
2022-11-16T03:22:12.563Z,70.84
2022-11-16T03:24:39.473Z,71.05
2022-11-16T03:27:16.449Z,71.20
2022-11-16T03:29:49.297Z,71.26
2022-11-16T03:32:25.724Z,71.45
2022-11-16T03:35:06.672Z,71.35
2022-11-16T03:37:33.923Z,71.17
2022-11-16T03:40:01.768Z,70.84
2022-11-16T03:42:31.485Z,70.79
2022-11-16T03:44:58.279Z,70.94
2022-11-16T03:47:25.504Z,70.92
2022-11-16T03:49:52.560Z,71.17
2022-11-16T03:52:19.919Z,71.11
2022-11-16T03:54:48.544Z,70.98
2022-11-16T03:57:18.507Z,71.30
2022-11-16T03:59:50.681Z,71.21
2022-11-16T04:02:17.156Z,71.29
2022-11-16T04:05:02.459Z,71.79
2022-11-16T04:07:47.687Z,71.39
2022-11-16T04:10:33.393Z,71.68
2022-11-16T04:13:19.072Z,71.55
2022-11-16T04:16:04.224Z,71.73
2022-11-16T04:18:49.401Z,71.61
2022-11-16T04:21:45.046Z,71.57
2022-11-16T04:24:17.273Z,71.62
2022-11-16T04:27:04.575Z,71.77
2022-11-16T04:29:32.396Z,71.45
2022-11-16T04:32:18.231Z,71.46
2022-11-16T04:35:03.445Z,71.49
2022-11-16T04:37:48.722Z,71.66
2022-11-16T04:40:20.083Z,71.67
2022-11-16T04:42:54.342Z,71.54
2022-11-16T04:45:40.844Z,71.46
2022-11-16T04:48:09.675Z,71.74
2022-11-16T04:50:39.148Z,71.53
2022-11-16T04:53:07.829Z,71.78
2022-11-16T04:55:42.680Z,71.53
2022-11-16T04:58:09.263Z,71.43
2022-11-16T05:00:35.932Z,71.90
2022-11-16T05:03:04.688Z,71.54
2022-11-16T05:05:31.261Z,71.60
2022-11-16T05:07:59.673Z,71.37
2022-11-16T05:10:28.964Z,71.49
2022-11-16T05:12:55.630Z,71.11
2022-11-16T05:15:23.236Z,71.40
2022-11-16T05:17:51.320Z,71.27
2022-11-16T05:20:40.341Z,71.55
2022-11-16T05:23:27.626Z,71.51
2022-11-16T05:25:55.371Z,71.43
2022-11-16T05:28:22.463Z,71.57
2022-11-16T05:30:48.951Z,71.26
2022-11-16T05:33:19.826Z,71.53
2022-11-16T05:35:50.395Z,70.98
2022-11-16T05:38:17.814Z,71.27
2022-11-16T05:40:47.650Z,71.43
2022-11-16T05:43:14.535Z,71.82
2022-11-16T05:45:50.131Z,71.45
2022-11-16T05:48:16.659Z,71.59
2022-11-16T05:50:43.861Z,71.48
2022-11-16T05:53:22.860Z,71.32
2022-11-16T05:55:49.561Z,71.79
2022-11-16T05:58:17.630Z,71.91
2022-11-16T06:00:46.734Z,71.87
2022-11-16T06:03:14.185Z,71.22
2022-11-16T06:05:41.128Z,71.85
2022-11-16T06:08:10.593Z,71.50
2022-11-16T06:10:37.187Z,71.98
2022-11-16T06:13:04.975Z,72.02
2022-11-16T06:15:31.842Z,71.78
2022-11-16T06:17:58.821Z,72.03
2022-11-16T06:20:25.336Z,71.72
2022-11-16T06:22:53.271Z,71.92
2022-11-16T06:25:20.662Z,71.72
2022-11-16T06:27:47.233Z,71.83
2022-11-16T06:30:16.768Z,71.28
2022-11-16T06:32:44.726Z,71.90
2022-11-16T06:35:11.514Z,71.88
2022-11-16T06:37:39.077Z,72.16
2022-11-16T06:40:07.380Z,72.02
2022-11-16T06:42:36.812Z,72.23
2022-11-16T06:45:03.906Z,72.04
2022-11-16T06:47:36.072Z,71.90
2022-11-16T06:50:03.188Z,72.01
2022-11-16T06:52:30.220Z,71.84
2022-11-16T06:54:57.849Z,71.95
2022-11-16T06:57:24.635Z,71.58
2022-11-16T06:59:51.163Z,71.56
2022-11-16T07:02:20.400Z,71.43
2022-11-16T07:04:48.444Z,71.05
2022-11-16T07:07:16.003Z,71.28
2022-11-16T07:09:44.457Z,71.04
2022-11-16T07:12:11.656Z,71.36
2022-11-16T07:14:40.761Z,70.50
2022-11-16T07:17:09.783Z,70.46
2022-11-16T07:19:37.036Z,70.37
2022-11-16T07:22:04.617Z,70.51
2022-11-16T07:24:32.012Z,70.05
2022-11-16T07:26:58.686Z,69.67
2022-11-16T07:29:27.463Z,69.77
2022-11-16T07:32:18.652Z,70.17
2022-11-16T07:35:14.519Z,69.74
2022-11-16T07:37:41.867Z,69.73
2022-11-16T07:40:08.975Z,68.98
2022-11-16T07:42:36.954Z,68.88
2022-11-16T07:45:14.210Z,68.86
2022-11-16T07:47:52.254Z,68.72
2022-11-16T07:50:27.321Z,68.81
2022-11-16T07:52:55.564Z,68.88
2022-11-16T07:55:24.212Z,67.94
2022-11-16T07:57:53.642Z,67.74
2022-11-16T08:00:21.314Z,67.62
2022-11-16T08:02:57.038Z,67.11
2022-11-16T08:05:23.531Z,66.91
2022-11-16T08:07:50.986Z,63.57
2022-11-16T08:10:21.531Z,64.23
2022-11-16T08:12:48.105Z,65.39
2022-11-16T08:15:16.359Z,65.53
2022-11-16T08:17:43.023Z,66.17
2022-11-16T08:20:12.231Z,66.22
2022-11-16T08:22:39.107Z,65.55
2022-11-16T08:25:06.820Z,65.56
2022-11-16T08:27:33.378Z,65.98
2022-11-16T08:30:03.115Z,65.46
2022-11-16T08:32:30.424Z,65.78
2022-11-16T08:34:56.963Z,65.82
2022-11-16T08:37:23.521Z,65.58
2022-11-16T08:39:50.106Z,65.98
2022-11-16T08:42:19.105Z,65.69
2022-11-16T08:44:48.276Z,65.78
2022-11-16T08:47:17.728Z,65.80
2022-11-16T08:49:51.262Z,65.80
2022-11-16T08:52:19.966Z,65.37
2022-11-16T08:54:48.377Z,65.27
2022-11-16T08:57:16.435Z,65.54
2022-11-16T08:59:44.439Z,65.21
2022-11-16T09:02:13.469Z,65.20
2022-11-16T09:04:40.146Z,65.26
2022-11-16T09:07:06.897Z,65.24
2022-11-16T09:09:33.480Z,65.24
2022-11-16T09:12:00.006Z,65.57
2022-11-16T09:14:28.924Z,64.97
2022-11-16T09:16:55.559Z,65.20
2022-11-16T09:19:22.362Z,65.44
2022-11-16T09:21:48.932Z,65.79
2022-11-16T09:24:15.474Z,66.00
2022-11-16T09:26:42.187Z,65.65
2022-11-16T09:29:12.759Z,66.25
2022-11-16T09:31:39.356Z,65.98
2022-11-16T09:34:06.245Z,66.00
2022-11-16T09:36:33.145Z,66.91
2022-11-16T09:39:30.081Z,67.22
2022-11-16T09:41:53.656Z,66.67
2022-11-16T09:44:20.072Z,66.39
2022-11-16T09:46:49.895Z,66.43
2022-11-16T09:49:20.183Z,66.60
2022-11-16T09:51:49.950Z,66.77
2022-11-16T09:54:36.344Z,67.34
2022-11-16T09:57:12.042Z,66.06
2022-11-16T09:59:42.952Z,65.44
2022-11-16T10:02:17.311Z,65.40
2022-11-16T10:05:08.210Z,65.53
2022-11-16T10:07:48.278Z,64.46
2022-11-16T10:10:16.413Z,64.74
2022-11-16T10:12:49.267Z,64.83
2022-11-16T10:15:38.640Z,64.79
2022-11-16T10:18:13.632Z,64.56
2022-11-16T10:21:05.750Z,64.46
2022-11-16T10:24:02.857Z,63.60
2022-11-16T10:26:59.111Z,63.36
2022-11-16T10:29:33.700Z,63.54
2022-11-16T10:32:15.244Z,63.91
2022-11-16T10:34:53.596Z,63.64
2022-11-16T10:37:21.482Z,63.21
2022-11-16T10:39:49.502Z,62.94
2022-11-16T10:42:36.485Z,62.60
2022-11-16T10:45:22.863Z,62.71
2022-11-16T10:47:57.816Z,62.36
2022-11-16T10:50:53.671Z,61.85
2022-11-16T10:53:43.701Z,61.93
2022-11-16T10:56:26.060Z,62.35
2022-11-16T10:59:05.639Z,61.74
2022-11-16T11:01:38.320Z,61.57
2022-11-16T11:04:20.199Z,61.28
2022-11-16T11:06:49.007Z,61.76
2022-11-16T11:09:15.475Z,61.26
2022-11-16T11:12:14.493Z,60.66
2022-11-16T11:14:41.124Z,60.99
2022-11-16T11:17:12.277Z,60.51
2022-11-16T11:19:38.858Z,60.84
2022-11-16T11:22:05.404Z,60.28
2022-11-16T11:24:47.776Z,60.86
2022-11-16T11:27:21.683Z,60.20
2022-11-16T11:29:51.643Z,60.07
2022-11-16T11:32:23.855Z,59.90
2022-11-16T11:34:53.410Z,59.05
2022-11-16T11:37:32.989Z,58.96
2022-11-16T11:40:24.536Z,59.40
2022-11-16T11:42:59.677Z,59.43
2022-11-16T11:45:36.635Z,58.57
2022-11-16T11:48:12.046Z,58.08
2022-11-16T11:50:55.989Z,58.44
2022-11-16T11:53:28.843Z,59.09
2022-11-16T11:55:58.484Z,58.66
2022-11-16T11:58:35.622Z,58.29
2022-11-16T12:01:23.893Z,57.93
2022-11-16T12:04:05.896Z,57.90
2022-11-16T12:07:19.023Z,57.48
2022-11-16T12:09:47.767Z,56.93
2022-11-16T12:12:36.102Z,58.72
2022-11-16T12:15:54.799Z,56.85
2022-11-16T12:18:40.538Z,55.28
2022-11-16T12:21:14.078Z,55.62
2022-11-16T12:23:56.550Z,54.98
2022-11-16T12:26:54.849Z,54.92
2022-11-16T12:29:30.536Z,53.98
2022-11-16T12:32:19.146Z,53.96
2022-11-16T12:34:45.642Z,53.32
2022-11-16T12:37:29.800Z,52.89
2022-11-16T12:40:22.871Z,52.23
2022-11-16T12:42:54.865Z,52.08
2022-11-16T12:45:31.978Z,51.43
2022-11-16T12:48:11.193Z,50.68
2022-11-16T12:50:59.537Z,50.29
2022-11-16T12:53:44.295Z,49.67
2022-11-16T12:56:49.118Z,48.80
2022-11-16T12:59:22.085Z,47.22
2022-11-16T13:02:12.882Z,45.44
2022-11-16T13:04:43.130Z,42.26
2022-11-16T13:07:59.289Z,35.26
2022-11-16T13:10:27.922Z,29.64
2022-11-16T13:13:15.363Z,28.11
2022-11-16T13:15:47.831Z,28.20
2022-11-16T13:18:17.217Z,26.91
2022-11-16T13:20:49.149Z,26.79
2022-11-16T13:23:33.579Z,25.22
2022-11-16T13:26:04.822Z,24.94
2022-11-16T13:28:42.413Z,24.54
2022-11-16T13:31:14.749Z,25.95
2022-11-16T13:33:50.756Z,28.75
2022-11-16T13:36:43.169Z,36.56
2022-11-16T13:39:13.754Z,40.67
2022-11-16T13:41:45.406Z,42.31
2022-11-16T13:44:20.958Z,43.71
2022-11-16T13:46:57.269Z,44.84
2022-11-16T13:49:36.886Z,46.19
2022-11-16T13:52:23.363Z,46.97
2022-11-16T13:54:53.266Z,47.16
2022-11-16T13:57:30.381Z,48.03
2022-11-16T14:00:21.152Z,48.62
2022-11-16T14:02:47.679Z,48.79
2022-11-16T14:05:36.909Z,49.00
2022-11-16T14:08:29.807Z,49.12
2022-11-16T14:10:56.265Z,49.31
2022-11-16T14:13:48.355Z,49.52
2022-11-16T14:16:14.766Z,49.63
2022-11-16T14:18:48.032Z,49.61
2022-11-16T14:21:20.505Z,50.49
2022-11-16T14:23:59.114Z,50.57
2022-11-16T14:26:54.546Z,50.46
2022-11-16T14:29:34.158Z,50.81
2022-11-16T14:32:03.106Z,50.62
2022-11-16T14:34:40.489Z,50.25
2022-11-16T14:37:13.279Z,50.47
2022-11-16T14:39:42.889Z,49.65
2022-11-16T14:42:18.606Z,50.08
2022-11-16T14:44:45.518Z,50.43
2022-11-16T14:47:22.829Z,49.88
2022-11-16T14:49:50.125Z,49.80
2022-11-16T14:52:18.897Z,49.28
2022-11-16T14:54:52.599Z,49.05
2022-11-16T14:57:23.704Z,48.62
2022-11-16T15:00:08.626Z,46.53
2022-11-16T15:02:35.930Z,35.65
2022-11-16T15:05:03.136Z,32.05
2022-11-16T15:07:30.230Z,30.54
2022-11-16T15:10:02.160Z,29.74
2022-11-16T15:12:43.065Z,30.09
2022-11-16T15:15:12.673Z,30.26
2022-11-16T15:17:41.754Z,30.13
2022-11-16T15:20:21.898Z,30.48
2022-11-16T15:22:51.955Z,30.42
2022-11-16T15:26:00.979Z,31.11
2022-11-16T15:28:32.865Z,31.68
2022-11-16T15:31:04.708Z,32.36
2022-11-16T15:33:40.584Z,32.43
2022-11-16T15:36:32.315Z,33.86
2022-11-16T15:39:00.886Z,37.81
2022-11-16T15:41:29.228Z,44.20
2022-11-16T15:44:15.673Z,46.66
2022-11-16T15:46:45.209Z,47.96
2022-11-16T15:49:24.784Z,48.26
2022-11-16T15:51:51.293Z,50.11
2022-11-16T15:54:53.781Z,51.02
2022-11-16T15:57:21.581Z,51.40
2022-11-16T15:59:49.698Z,51.63
2022-11-16T16:02:18.890Z,51.71
2022-11-16T16:04:45.373Z,51.24
2022-11-16T16:07:13.457Z,52.26
2022-11-16T16:09:40.643Z,52.58
2022-11-16T16:12:23.939Z,53.42
2022-11-16T16:14:52.139Z,54.03
2022-11-16T16:17:23.849Z,53.82
2022-11-16T16:19:58.080Z,53.49
2022-11-16T16:22:27.481Z,53.74
2022-11-16T16:24:54.432Z,54.29
2022-11-16T16:27:23.766Z,54.84
2022-11-16T16:29:55.021Z,54.89
2022-11-16T16:32:31.129Z,55.17
2022-11-16T16:34:59.429Z,55.64
2022-11-16T16:37:28.788Z,55.35
2022-11-16T16:39:55.365Z,56.24
2022-11-16T16:42:22.171Z,56.23
2022-11-16T16:44:49.395Z,55.42
2022-11-16T16:47:17.063Z,55.95
2022-11-16T16:49:43.650Z,56.21
2022-11-16T16:52:12.236Z,56.60
2022-11-16T16:54:38.925Z,56.65
2022-11-16T16:57:05.384Z,56.58
2022-11-16T16:59:32.169Z,56.90
2022-11-16T17:01:58.886Z,57.29
2022-11-16T17:04:25.866Z,57.48
2022-11-16T17:06:53.224Z,57.45
2022-11-16T17:09:20.243Z,58.03
2022-11-16T17:11:47.411Z,58.30
2022-11-16T17:14:14.122Z,57.71
2022-11-16T17:16:40.961Z,57.67
2022-11-16T17:19:07.520Z,58.53
2022-11-16T17:21:33.989Z,58.88
2022-11-16T17:24:00.518Z,58.66
2022-11-16T17:26:29.332Z,58.46
2022-11-16T17:28:57.381Z,58.20
2022-11-16T17:31:24.580Z,59.05
2022-11-16T17:33:51.524Z,58.97
2022-11-16T17:36:18.551Z,58.42
2022-11-16T17:38:45.250Z,58.90
2022-11-16T17:41:12.907Z,58.71
2022-11-16T17:43:40.573Z,59.19
2022-11-16T17:46:18.455Z,59.46
2022-11-16T17:48:47.039Z,59.33
2022-11-16T17:51:16.313Z,59.22
2022-11-16T17:53:45.992Z,59.29
2022-11-16T17:56:13.868Z,59.45
2022-11-16T17:58:40.958Z,59.72
2022-11-16T18:01:07.785Z,59.66
2022-11-16T18:03:38.417Z,59.71
2022-11-16T18:06:11.043Z,60.10
2022-11-16T18:08:37.571Z,59.33
2022-11-16T18:11:08.186Z,59.93
2022-11-16T18:13:35.467Z,59.48
2022-11-16T18:16:06.888Z,60.16
2022-11-16T18:18:34.211Z,60.77
2022-11-16T18:21:01.403Z,60.66
2022-11-16T18:23:28.749Z,61.33
2022-11-16T18:25:55.684Z,61.33
2022-11-16T18:28:22.724Z,61.23
2022-11-16T18:30:49.204Z,60.62
2022-11-16T18:33:16.436Z,61.36
2022-11-16T18:35:43.605Z,60.83
2022-11-16T18:38:13.084Z,61.18
2022-11-16T18:40:40.281Z,61.66
2022-11-16T18:43:12.278Z,61.80
2022-11-16T18:45:38.899Z,61.80
2022-11-16T18:48:05.554Z,62.33
2022-11-16T18:50:32.052Z,62.76
2022-11-16T18:52:58.552Z,62.74
2022-11-16T18:55:25.180Z,62.44
2022-11-16T18:57:51.646Z,62.91
2022-11-16T19:00:19.921Z,62.97
2022-11-16T19:02:46.552Z,62.59
2022-11-16T19:05:13.107Z,62.03
2022-11-16T19:07:39.637Z,62.58
2022-11-16T19:10:06.801Z,62.83
2022-11-16T19:12:33.318Z,62.86
2022-11-16T19:15:00.169Z,62.46
2022-11-16T19:17:27.034Z,63.13
2022-11-16T19:19:53.597Z,62.96
2022-11-16T19:22:20.462Z,62.45
2022-11-16T19:24:46.944Z,62.90
2022-11-16T19:27:13.492Z,62.61
2022-11-16T19:29:40.042Z,62.53
2022-11-16T19:32:06.598Z,62.37
2022-11-16T19:34:33.666Z,62.43
2022-11-16T19:37:00.290Z,62.38
2022-11-16T19:39:26.846Z,62.65
2022-11-16T19:41:53.298Z,62.76
2022-11-16T19:44:19.992Z,62.73
2022-11-16T19:46:46.531Z,62.36
2022-11-16T19:49:19.949Z,63.15
2022-11-16T19:51:47.157Z,62.49
2022-11-16T19:54:14.761Z,62.89
2022-11-16T19:56:41.829Z,63.23
2022-11-16T19:59:08.394Z,62.56
2022-11-16T20:01:35.105Z,62.78
2022-11-16T20:04:05.712Z,62.87
2022-11-16T20:06:38.460Z,62.99
2022-11-16T20:09:08.741Z,62.36
2022-11-16T20:11:37.860Z,62.45
2022-11-16T20:14:06.808Z,63.05
2022-11-16T20:16:38.803Z,62.85
2022-11-16T20:19:07.469Z,62.50
2022-11-16T20:21:36.128Z,63.21
2022-11-16T20:24:06.486Z,62.97
2022-11-16T20:26:34.192Z,62.87
2022-11-16T20:29:00.751Z,63.57
2022-11-16T20:31:29.107Z,62.74
